Jp Tsubaki — JD2817 — position and weather

sailwx.info

Track history (hours):
 
Tides and Currents Weather Stations Pressure Air Temp Water Temp Dewpoint Dewpoint Depression Visibility Wind Speed Wind Dir Waves Ship Positions

Jp Tsubaki

Last reported at 2017-Jan-22 01:34 UTC. Time now 2017-Jan-22 01:45 UTC.
Position N 35°24' E 139°39'.

Length 115 m; draft 4.4 m.

Type: Cargo ship. MMSI: 431000734.

Date/timePositionNaut miles runAvg speedWind from/ knotsBaromVisibWave heightAir tempDewpointWater temp
2017-Jan-22 01:34N 35°24' E 139°39'0 0.0
2017-Jan-22 00:34N 35°24' E 139°39'0 0.0
2017-Jan-21 23:34N 35°24' E 139°39'0 0.0
2017-Jan-21 22:31N 35°24' E 139°39'0 0.0
2017-Jan-21 21:34N 35°24' E 139°39'0 0.0
2017-Jan-21 20:31N 35°24' E 139°39'0 0.0
2017-Jan-21 19:34N 35°24' E 139°39'0 0.0
2017-Jan-21 18:31N 35°24' E 139°39'0 0.0
2017-Jan-21 17:31N 35°24' E 139°39'0 0.0
2017-Jan-21 16:31N 35°24' E 139°39'0 0.0
2017-Jan-21 15:34N 35°24' E 139°39'0 0.0
2017-Jan-21 14:34N 35°24' E 139°39'0 0.0
2017-Jan-21 13:34N 35°24' E 139°39'1 1.1
2017-Jan-21 12:33N 35°24' E 139°40'9 8.5
2017-Jan-21 11:33N 35°30' E 139°46'3 2.5
2017-Jan-21 10:33N 35°30' E 139°43'0 0.0
2017-Jan-21 09:33N 35°30' E 139°43'0 0.0
2017-Jan-21 08:33N 35°30' E 139°43'0 0.0
2017-Jan-21 07:27N 35°30' E 139°43'0 0.0
2017-Jan-21 06:33N 35°30' E 139°43'0 0.0
2017-Jan-21 05:30N 35°30' E 139°43'0 0.0
2017-Jan-21 04:33N 35°30' E 139°43'0 0.0
2017-Jan-21 03:33N 35°30' E 139°43'0 0.0
2017-Jan-21 02:33N 35°30' E 139°43'0 0.0
2017-Jan-21 01:30N 35°30' E 139°43'0 0.0
2017-Jan-21 00:33N 35°30' E 139°43'0 0.0
2017-Jan-20 23:34N 35°30' E 139°43'4 3.9
2017-Jan-20 22:34N 35°27' E 139°46'5 4.1
2017-Jan-20 21:26N 35°27' E 139°51'0 0.0
2017-Jan-20 20:32N 35°27' E 139°51'0 0.0
2017-Jan-20 19:32N 35°27' E 139°52'0 0.0
2017-Jan-20 18:32N 35°27' E 139°51'0 0.0
2017-Jan-20 17:32N 35°27' E 139°52'0 0.0
2017-Jan-20 16:32N 35°27' E 139°52'0 0.0
2017-Jan-20 15:32N 35°27' E 139°52'0 0.0
2017-Jan-20 14:32N 35°27' E 139°51'6 5.9
2017-Jan-20 13:34N 35°25' E 139°45'5 4.8
2017-Jan-20 12:28N 35°24' E 139°39'0 0.0
2017-Jan-20 11:31N 35°24' E 139°39'0 0.0
2017-Jan-20 10:31N 35°24' E 139°39'0 0.0
2017-Jan-20 09:28N 35°24' E 139°39'0 0.0
2017-Jan-20 08:22N 35°24' E 139°39'0 0.0
2017-Jan-20 07:31N 35°24' E 139°39'0 0.0
2017-Jan-20 06:28N 35°24' E 139°39'0 0.0
2017-Jan-20 05:31N 35°24' E 139°39'0 0.0
2017-Jan-20 04:33N 35°24' E 139°39'1 1.2
2017-Jan-20 03:33N 35°24' E 139°40'0 0.0
2017-Jan-20 02:33N 35°24' E 139°40'0 0.0
2017-Jan-20 01:33N 35°24' E 139°40'0 0.0
2017-Jan-20 00:33N 35°24' E 139°40'0 0.0
2017-Jan-19 23:33N 35°24' E 139°40'0 0.0
2017-Jan-19 22:33N 35°24' E 139°40'1 1.2
2017-Jan-19 21:34N 35°23' E 139°41'3 2.7
2017-Jan-19 20:33N 35°22' E 139°44'0 0.0
2017-Jan-19 19:33N 35°22' E 139°44'0 0.0
2017-Jan-19 18:33N 35°22' E 139°44'0 0.0
2017-Jan-19 17:33N 35°22' E 139°44'0 0.0
2017-Jan-19 16:30N 35°22' E 139°44'0 0.0
2017-Jan-19 15:33N 35°22' E 139°44'0 0.0
2017-Jan-19 14:33N 35°22' E 139°44'0 0.0
2017-Jan-19 13:33N 35°22' E 139°44'5 4.7
2017-Jan-19 12:33N 35°24' E 139°39'0 0.0
2017-Jan-19 11:32N 35°24' E 139°39'0 0.0
2017-Jan-19 10:32N 35°24' E 139°39'0 0.0
2017-Jan-19 09:32N 35°24' E 139°39'0 0.0
2017-Jan-19 08:32N 35°24' E 139°39'0 0.0
2017-Jan-19 07:32N 35°24' E 139°39'0 0.0
2017-Jan-19 06:33N 35°24' E 139°39'7 7.3
2017-Jan-19 05:33N 35°28' E 139°46'3 3.2
2017-Jan-19 04:33N 35°30' E 139°43'0 0.1
2017-Jan-19 03:33N 35°30' E 139°43'0 0.0
2017-Jan-19 02:31N 35°30' E 139°43'0 0.0
2017-Jan-19 01:31N 35°30' E 139°43'0 0.0
2017-Jan-19 00:31N 35°30' E 139°43'0 0.0
2017-Jan-18 23:31N 35°30' E 139°43'0 0.1
2017-Jan-18 22:33N 35°30' E 139°43'4 4.3
2017-Jan-18 21:33N 35°25' E 139°43'3 2.5
2017-Jan-18 20:32N 35°23' E 139°44'0 0.0
2017-Jan-18 19:32N 35°23' E 139°44'0 0.0
2017-Jan-18 18:32N 35°23' E 139°44'0 0.0
2017-Jan-18 17:32N 35°23' E 139°44'0 0.0
2017-Jan-18 16:32N 35°23' E 139°44'0 0.1
2017-Jan-18 15:32N 35°23' E 139°44'0 0.0
2017-Jan-18 14:32N 35°23' E 139°44'0 0.1
2017-Jan-18 13:32N 35°23' E 139°44'5 4.6
2017-Jan-18 12:33N 35°24' E 139°39'0 0.0
2017-Jan-18 11:33N 35°24' E 139°39'0 0.0
2017-Jan-18 10:33N 35°24' E 139°39'0 0.0
2017-Jan-18 09:33N 35°24' E 139°39'0 0.0
2017-Jan-18 08:33N 35°24' E 139°39'0 0.0
2017-Jan-18 07:30N 35°24' E 139°39'0 0.0
2017-Jan-18 06:33N 35°24' E 139°39'0 0.0
2017-Jan-18 05:33N 35°24' E 139°39'0 0.0
2017-Jan-18 04:33N 35°24' E 139°39'0 0.0
2017-Jan-18 03:30N 35°24' E 139°39'0 0.0
2017-Jan-18 02:33N 35°24' E 139°39'0 0.0
2017-Jan-18 01:33N 35°24' E 139°39'0 0.0
2017-Jan-18 00:33N 35°24' E 139°39'0 0.0
2017-Jan-17 23:33N 35°24' E 139°39'0 0.0
2017-Jan-17 22:24N 35°24' E 139°39'0 0.0
2017-Jan-17 21:27N 35°24' E 139°39'0 0.0
2017-Jan-17 20:33N 35°24' E 139°39'0 0.0
2017-Jan-17 19:30N 35°24' E 139°39'0 0.0
2017-Jan-17 18:33N 35°24' E 139°39'0 0.0
2017-Jan-17 17:33N 35°24' E 139°39'0 0.0
2017-Jan-17 16:33N 35°24' E 139°39'0 0.0
2017-Jan-17 15:27N 35°24' E 139°39'0 0.0
2017-Jan-17 14:33N 35°24' E 139°39'0 0.0
2017-Jan-17 13:27N 35°24' E 139°39'1 0.9
2017-Jan-17 12:33N 35°24' E 139°39'1 0.5
2017-Jan-17 11:32N 35°24' E 139°40'0 0.0
2017-Jan-17 10:32N 35°24' E 139°40'0 0.0
2017-Jan-17 09:31N 35°24' E 139°40'0 0.0
2017-Jan-17 08:32N 35°24' E 139°40'0 0.0
2017-Jan-17 07:31N 35°24' E 139°40'0 0.0
2017-Jan-17 06:31N 35°24' E 139°40'1 1.2
2017-Jan-17 05:34N 35°24' E 139°39'0 0.0
2017-Jan-17 04:33N 35°24' E 139°39'0 0.0
2017-Jan-17 03:33N 35°24' E 139°39'0 0.0
2017-Jan-17 02:33N 35°24' E 139°39'0 0.0
2017-Jan-17 01:33N 35°24' E 139°39'0 0.0
2017-Jan-17 00:33N 35°24' E 139°39'0 0.0
2017-Jan-16 23:33N 35°24' E 139°39'0 0.0
2017-Jan-16 22:33N 35°24' E 139°39'0 0.0
2017-Jan-16 21:33N 35°24' E 139°39'0 0.0
2017-Jan-16 20:33N 35°24' E 139°39'0 0.0
2017-Jan-16 19:33N 35°24' E 139°39'0 0.0
2017-Jan-16 18:33N 35°24' E 139°39'0 0.0
2017-Jan-16 17:27N 35°24' E 139°39'0 0.1
2017-Jan-16 16:33N 35°24' E 139°39'0 0.0
2017-Jan-16 15:33N 35°24' E 139°39'0 0.0
2017-Jan-16 14:27N 35°24' E 139°39'0 0.0
2017-Jan-16 13:33N 35°24' E 139°39'4 3.8
2017-Jan-16 12:33N 35°25' E 139°43'5 4.9
2017-Jan-16 11:33N 35°30' E 139°43'0 0.3
2017-Jan-16 10:33N 35°30' E 139°43'0 0.0
2017-Jan-16 09:33N 35°30' E 139°43'0 0.0
2017-Jan-16 08:33N 35°30' E 139°43'0 0.0
2017-Jan-16 07:33N 35°30' E 139°43'0 0.0
2017-Jan-16 06:33N 35°30' E 139°43'0 0.0
2017-Jan-16 05:33N 35°30' E 139°43'7 6.5
2017-Jan-16 04:33N 35°24' E 139°40'2 1.6
2017-Jan-16 03:33N 35°24' E 139°39'0 0.0
2017-Jan-16 02:33N 35°24' E 139°39'0 0.0
2017-Jan-16 01:33N 35°24' E 139°39'0 0.0
2017-Jan-16 00:33N 35°24' E 139°39'0 0.0
2017-Jan-15 23:33N 35°24' E 139°39'0 0.0
2017-Jan-15 22:33N 35°24' E 139°39'0 0.0
2017-Jan-15 21:33N 35°24' E 139°39'0 0.0
2017-Jan-15 20:33N 35°24' E 139°39'0 0.0
2017-Jan-15 19:33N 35°24' E 139°39'0 0.0
2017-Jan-15 18:33N 35°24' E 139°39'0 0.0
2017-Jan-15 17:30N 35°24' E 139°39'0 0.0
2017-Jan-15 16:30N 35°24' E 139°39'0 0.0
2017-Jan-15 15:30N 35°24' E 139°39'0 0.0
2017-Jan-15 14:33N 35°24' E 139°39'0 0.0
2017-Jan-15 13:33N 35°24' E 139°39'3 3.4
2017-Jan-15 12:34N 35°25' E 139°43'5 5.1
2017-Jan-15 11:34N 35°30' E 139°43'0 0.3
2017-Jan-15 10:32N 35°30' E 139°43'0 0.0
2017-Jan-15 09:32N 35°30' E 139°43'0 0.0
2017-Jan-15 08:32N 35°30' E 139°43'0 0.0
2017-Jan-15 07:32N 35°30' E 139°43'0 0.0
2017-Jan-15 06:32N 35°30' E 139°43'0 0.4
2017-Jan-15 05:34N 35°29' E 139°43'4 4.2
2017-Jan-15 04:33N 35°25' E 139°43'4 3.6
2017-Jan-15 03:33N 35°24' E 139°39'0 0.0
2017-Jan-15 02:33N 35°24' E 139°39'0 0.0
2017-Jan-15 01:33N 35°24' E 139°39'0 0.0
2017-Jan-15 00:33N 35°24' E 139°39'0 0.0
2017-Jan-14 23:33N 35°24' E 139°39'0 0.0
2017-Jan-14 22:33N 35°24' E 139°39'0 0.0
2017-Jan-14 21:33N 35°24' E 139°39'0 0.0
2017-Jan-14 20:33N 35°24' E 139°39'0 0.0
2017-Jan-14 19:33N 35°24' E 139°39'0 0.0
2017-Jan-14 18:33N 35°24' E 139°39'0 0.0
2017-Jan-14 17:33N 35°24' E 139°39'0 0.0
2017-Jan-14 16:33N 35°24' E 139°39'0 0.0
2017-Jan-14 15:33N 35°24' E 139°39'0 0.0
2017-Jan-14 14:33N 35°24' E 139°39'0 0.0
2017-Jan-14 13:33N 35°24' E 139°39'2 1.5
2017-Jan-14 12:33N 35°23' E 139°40'8 8.1
2017-Jan-14 11:33N 35°30' E 139°45'2 2.0
2017-Jan-14 10:33N 35°30' E 139°43'0 0.0
2017-Jan-14 09:32N 35°30' E 139°43'0 0.0
2017-Jan-14 08:32N 35°30' E 139°43'0 0.0
2017-Jan-14 07:32N 35°30' E 139°43'0 0.0
2017-Jan-14 06:32N 35°30' E 139°43'0 0.0
2017-Jan-14 05:32N 35°30' E 139°43'3 3.0
2017-Jan-14 04:34N 35°27' E 139°43'5 4.5
2017-Jan-14 03:33N 35°24' E 139°39'0 0.0
2017-Jan-13 23:33N 35°24' E 139°39'0 0.0
2017-Jan-13 22:30N 35°24' E 139°39'0 0.0
2017-Jan-13 21:33N 35°24' E 139°39'0 0.0
2017-Jan-13 20:30N 35°24' E 139°39'0 0.0
2017-Jan-13 19:33N 35°24' E 139°39'0 0.0
2017-Jan-13 18:33N 35°24' E 139°39'0 0.0
2017-Jan-13 17:33N 35°24' E 139°39'0 0.0
2017-Jan-13 16:33N 35°24' E 139°39'0 0.0
2017-Jan-13 15:30N 35°24' E 139°39'0 0.1
2017-Jan-13 14:33N 35°24' E 139°38'5 5.1
2017-Jan-13 13:33N 35°26' E 139°44'4 3.9
2017-Jan-13 12:34N 35°30' E 139°43'0 0.3
2017-Jan-13 11:33N 35°30' E 139°43'0 0.0
2017-Jan-13 10:33N 35°30' E 139°43'0 0.0
2017-Jan-13 09:33N 35°30' E 139°43'0 0.0
2017-Jan-13 08:33N 35°30' E 139°43'0 0.0
2017-Jan-13 07:33N 35°30' E 139°43'0 0.0
2017-Jan-13 06:33N 35°30' E 139°43'0 0.2
2017-Jan-13 05:34N 35°30' E 139°43'7 6.8
2017-Jan-13 04:34N 35°24' E 139°39'0 0.1
2017-Jan-13 03:32N 35°24' E 139°39'0 0.0
2017-Jan-13 02:32N 35°24' E 139°39'0 0.0
2017-Jan-13 01:29N 35°24' E 139°39'0 0.0
2017-Jan-13 00:29N 35°24' E 139°39'0 0.0
2017-Jan-12 23:32N 35°24' E 139°39'0 0.0
2017-Jan-12 22:32N 35°24' E 139°39'0 0.0
2017-Jan-12 21:32N 35°24' E 139°39'0 0.0
2017-Jan-12 20:32N 35°24' E 139°39'0 0.0
2017-Jan-12 19:32N 35°24' E 139°39'0 0.0
2017-Jan-12 18:32N 35°24' E 139°39'0 0.0
2017-Jan-12 17:32N 35°24' E 139°39'0 0.0
2017-Jan-12 16:32N 35°24' E 139°39'0 0.0
2017-Jan-12 15:32N 35°24' E 139°39'2 1.9
2017-Jan-12 14:33N 35°23' E 139°41'8 7.9
2017-Jan-12 13:33N 35°30' E 139°45'2 2.0
2017-Jan-12 12:33N 35°30' E 139°43'0 0.0
2017-Jan-12 11:33N 35°30' E 139°43'0 0.0
2017-Jan-12 10:33N 35°30' E 139°43'0 0.0
2017-Jan-12 09:33N 35°30' E 139°43'0 0.0
2017-Jan-12 08:33N 35°30' E 139°43'0 0.0
2017-Jan-12 07:33N 35°30' E 139°43'0 0.0
2017-Jan-12 06:33N 35°30' E 139°43'5 4.8
2017-Jan-12 05:33N 35°25' E 139°43'4 3.5
2017-Jan-12 04:33N 35°24' E 139°39'0 0.0
2017-Jan-12 03:33N 35°24' E 139°39'0 0.0
2017-Jan-12 02:33N 35°24' E 139°39'  
Track history (hours):
 
Tides and Currents Weather Stations Pressure Air Temp Water Temp Dewpoint Dewpoint Depression Visibility Wind Speed Wind Dir Waves Ship Positions

Jp Tsubaki

Last reported at 2017-Jan-22 01:34 UTC. Time now 2017-Jan-22 01:45 UTC.
Position N 35°24' E 139°39'.

Length 115 m; draft 4.4 m.

Type: Cargo ship. MMSI: 431000734.

Date/timePositionNaut miles runAvg speedWind from/ knotsBaromVisibWave heightAir tempDewpointWater temp
2017-Jan-22 01:34N 35°24' E 139°39'0 0.0
2017-Jan-22 00:34N 35°24' E 139°39'0 0.0
2017-Jan-21 23:34N 35°24' E 139°39'0 0.0
2017-Jan-21 22:31N 35°24' E 139°39'0 0.0
2017-Jan-21 21:34N 35°24' E 139°39'0 0.0
2017-Jan-21 20:31N 35°24' E 139°39'0 0.0
2017-Jan-21 19:34N 35°24' E 139°39'0 0.0
2017-Jan-21 18:31N 35°24' E 139°39'0 0.0
2017-Jan-21 17:31N 35°24' E 139°39'0 0.0
2017-Jan-21 16:31N 35°24' E 139°39'0 0.0
2017-Jan-21 15:34N 35°24' E 139°39'0 0.0
2017-Jan-21 14:34N 35°24' E 139°39'0 0.0
2017-Jan-21 13:34N 35°24' E 139°39'1 1.1
2017-Jan-21 12:33N 35°24' E 139°40'9 8.5
2017-Jan-21 11:33N 35°30' E 139°46'3 2.5
2017-Jan-21 10:33N 35°30' E 139°43'0 0.0
2017-Jan-21 09:33N 35°30' E 139°43'0 0.0
2017-Jan-21 08:33N 35°30' E 139°43'0 0.0
2017-Jan-21 07:27N 35°30' E 139°43'0 0.0
2017-Jan-21 06:33N 35°30' E 139°43'0 0.0
2017-Jan-21 05:30N 35°30' E 139°43'0 0.0
2017-Jan-21 04:33N 35°30' E 139°43'0 0.0
2017-Jan-21 03:33N 35°30' E 139°43'0 0.0
2017-Jan-21 02:33N 35°30' E 139°43'0 0.0
2017-Jan-21 01:30N 35°30' E 139°43'0 0.0
2017-Jan-21 00:33N 35°30' E 139°43'0 0.0
2017-Jan-20 23:34N 35°30' E 139°43'4 3.9
2017-Jan-20 22:34N 35°27' E 139°46'5 4.1
2017-Jan-20 21:26N 35°27' E 139°51'0 0.0
2017-Jan-20 20:32N 35°27' E 139°51'0 0.0
2017-Jan-20 19:32N 35°27' E 139°52'0 0.0
2017-Jan-20 18:32N 35°27' E 139°51'0 0.0
2017-Jan-20 17:32N 35°27' E 139°52'0 0.0
2017-Jan-20 16:32N 35°27' E 139°52'0 0.0
2017-Jan-20 15:32N 35°27' E 139°52'0 0.0
2017-Jan-20 14:32N 35°27' E 139°51'6 5.9
2017-Jan-20 13:34N 35°25' E 139°45'5 4.8
2017-Jan-20 12:28N 35°24' E 139°39'0 0.0
2017-Jan-20 11:31N 35°24' E 139°39'0 0.0
2017-Jan-20 10:31N 35°24' E 139°39'0 0.0
2017-Jan-20 09:28N 35°24' E 139°39'0 0.0
2017-Jan-20 08:22N 35°24' E 139°39'0 0.0
2017-Jan-20 07:31N 35°24' E 139°39'0 0.0
2017-Jan-20 06:28N 35°24' E 139°39'0 0.0
2017-Jan-20 05:31N 35°24' E 139°39'0 0.0
2017-Jan-20 04:33N 35°24' E 139°39'1 1.2
2017-Jan-20 03:33N 35°24' E 139°40'0 0.0
2017-Jan-20 02:33N 35°24' E 139°40'0 0.0
2017-Jan-20 01:33N 35°24' E 139°40'0 0.0
2017-Jan-20 00:33N 35°24' E 139°40'0 0.0
2017-Jan-19 23:33N 35°24' E 139°40'0 0.0
2017-Jan-19 22:33N 35°24' E 139°40'1 1.2
2017-Jan-19 21:34N 35°23' E 139°41'3 2.7
2017-Jan-19 20:33N 35°22' E 139°44'0 0.0
2017-Jan-19 19:33N 35°22' E 139°44'0 0.0
2017-Jan-19 18:33N 35°22' E 139°44'0 0.0
2017-Jan-19 17:33N 35°22' E 139°44'0 0.0
2017-Jan-19 16:30N 35°22' E 139°44'0 0.0
2017-Jan-19 15:33N 35°22' E 139°44'0 0.0
2017-Jan-19 14:33N 35°22' E 139°44'0 0.0
2017-Jan-19 13:33N 35°22' E 139°44'5 4.7
2017-Jan-19 12:33N 35°24' E 139°39'0 0.0
2017-Jan-19 11:32N 35°24' E 139°39'0 0.0
2017-Jan-19 10:32N 35°24' E 139°39'0 0.0
2017-Jan-19 09:32N 35°24' E 139°39'0 0.0
2017-Jan-19 08:32N 35°24' E 139°39'0 0.0
2017-Jan-19 07:32N 35°24' E 139°39'0 0.0
2017-Jan-19 06:33N 35°24' E 139°39'7 7.3
2017-Jan-19 05:33N 35°28' E 139°46'3 3.2
2017-Jan-19 04:33N 35°30' E 139°43'0 0.1
2017-Jan-19 03:33N 35°30' E 139°43'0 0.0
2017-Jan-19 02:31N 35°30' E 139°43'0 0.0
2017-Jan-19 01:31N 35°30' E 139°43'0 0.0
2017-Jan-19 00:31N 35°30' E 139°43'0 0.0
2017-Jan-18 23:31N 35°30' E 139°43'0 0.1
2017-Jan-18 22:33N 35°30' E 139°43'4 4.3
2017-Jan-18 21:33N 35°25' E 139°43'3 2.5
2017-Jan-18 20:32N 35°23' E 139°44'0 0.0
2017-Jan-18 19:32N 35°23' E 139°44'0 0.0
2017-Jan-18 18:32N 35°23' E 139°44'0 0.0
2017-Jan-18 17:32N 35°23' E 139°44'0 0.0
2017-Jan-18 16:32N 35°23' E 139°44'0 0.1
2017-Jan-18 15:32N 35°23' E 139°44'0 0.0
2017-Jan-18 14:32N 35°23' E 139°44'0 0.1
2017-Jan-18 13:32N 35°23' E 139°44'5 4.6
2017-Jan-18 12:33N 35°24' E 139°39'0 0.0
2017-Jan-18 11:33N 35°24' E 139°39'0 0.0
2017-Jan-18 10:33N 35°24' E 139°39'0 0.0
2017-Jan-18 09:33N 35°24' E 139°39'0 0.0
2017-Jan-18 08:33N 35°24' E 139°39'0 0.0
2017-Jan-18 07:30N 35°24' E 139°39'0 0.0
2017-Jan-18 06:33N 35°24' E 139°39'0 0.0
2017-Jan-18 05:33N 35°24' E 139°39'0 0.0
2017-Jan-18 04:33N 35°24' E 139°39'0 0.0
2017-Jan-18 03:30N 35°24' E 139°39'0 0.0
2017-Jan-18 02:33N 35°24' E 139°39'0 0.0
2017-Jan-18 01:33N 35°24' E 139°39'0 0.0
2017-Jan-18 00:33N 35°24' E 139°39'0 0.0
2017-Jan-17 23:33N 35°24' E 139°39'0 0.0
2017-Jan-17 22:24N 35°24' E 139°39'0 0.0
2017-Jan-17 21:27N 35°24' E 139°39'0 0.0
2017-Jan-17 20:33N 35°24' E 139°39'0 0.0
2017-Jan-17 19:30N 35°24' E 139°39'0 0.0
2017-Jan-17 18:33N 35°24' E 139°39'0 0.0
2017-Jan-17 17:33N 35°24' E 139°39'0 0.0
2017-Jan-17 16:33N 35°24' E 139°39'0 0.0
2017-Jan-17 15:27N 35°24' E 139°39'0 0.0
2017-Jan-17 14:33N 35°24' E 139°39'0 0.0
2017-Jan-17 13:27N 35°24' E 139°39'1 0.9
2017-Jan-17 12:33N 35°24' E 139°39'1 0.5
2017-Jan-17 11:32N 35°24' E 139°40'0 0.0
2017-Jan-17 10:32N 35°24' E 139°40'0 0.0
2017-Jan-17 09:31N 35°24' E 139°40'0 0.0
2017-Jan-17 08:32N 35°24' E 139°40'0 0.0
2017-Jan-17 07:31N 35°24' E 139°40'0 0.0
2017-Jan-17 06:31N 35°24' E 139°40'1 1.2
2017-Jan-17 05:34N 35°24' E 139°39'0 0.0
2017-Jan-17 04:33N 35°24' E 139°39'0 0.0
2017-Jan-17 03:33N 35°24' E 139°39'0 0.0
2017-Jan-17 02:33N 35°24' E 139°39'0 0.0
2017-Jan-17 01:33N 35°24' E 139°39'0 0.0
2017-Jan-17 00:33N 35°24' E 139°39'0 0.0
2017-Jan-16 23:33N 35°24' E 139°39'0 0.0
2017-Jan-16 22:33N 35°24' E 139°39'0 0.0
2017-Jan-16 21:33N 35°24' E 139°39'0 0.0
2017-Jan-16 20:33N 35°24' E 139°39'0 0.0
2017-Jan-16 19:33N 35°24' E 139°39'0 0.0
2017-Jan-16 18:33N 35°24' E 139°39'0 0.0
2017-Jan-16 17:27N 35°24' E 139°39'0 0.1
2017-Jan-16 16:33N 35°24' E 139°39'0 0.0
2017-Jan-16 15:33N 35°24' E 139°39'0 0.0
2017-Jan-16 14:27N 35°24' E 139°39'0 0.0
2017-Jan-16 13:33N 35°24' E 139°39'4 3.8
2017-Jan-16 12:33N 35°25' E 139°43'5 4.9
2017-Jan-16 11:33N 35°30' E 139°43'0 0.3
2017-Jan-16 10:33N 35°30' E 139°43'0 0.0
2017-Jan-16 09:33N 35°30' E 139°43'0 0.0
2017-Jan-16 08:33N 35°30' E 139°43'0 0.0
2017-Jan-16 07:33N 35°30' E 139°43'0 0.0
2017-Jan-16 06:33N 35°30' E 139°43'0 0.0
2017-Jan-16 05:33N 35°30' E 139°43'7 6.5
2017-Jan-16 04:33N 35°24' E 139°40'2 1.6
2017-Jan-16 03:33N 35°24' E 139°39'0 0.0
2017-Jan-16 02:33N 35°24' E 139°39'0 0.0
2017-Jan-16 01:33N 35°24' E 139°39'0 0.0
2017-Jan-16 00:33N 35°24' E 139°39'0 0.0
2017-Jan-15 23:33N 35°24' E 139°39'0 0.0
2017-Jan-15 22:33N 35°24' E 139°39'0 0.0
2017-Jan-15 21:33N 35°24' E 139°39'0 0.0
2017-Jan-15 20:33N 35°24' E 139°39'0 0.0
2017-Jan-15 19:33N 35°24' E 139°39'0 0.0
2017-Jan-15 18:33N 35°24' E 139°39'0 0.0
2017-Jan-15 17:30N 35°24' E 139°39'0 0.0
2017-Jan-15 16:30N 35°24' E 139°39'0 0.0
2017-Jan-15 15:30N 35°24' E 139°39'0 0.0
2017-Jan-15 14:33N 35°24' E 139°39'0 0.0
2017-Jan-15 13:33N 35°24' E 139°39'3 3.4
2017-Jan-15 12:34N 35°25' E 139°43'5 5.1
2017-Jan-15 11:34N 35°30' E 139°43'0 0.3
2017-Jan-15 10:32N 35°30' E 139°43'0 0.0
2017-Jan-15 09:32N 35°30' E 139°43'0 0.0
2017-Jan-15 08:32N 35°30' E 139°43'0 0.0
2017-Jan-15 07:32N 35°30' E 139°43'0 0.0
2017-Jan-15 06:32N 35°30' E 139°43'0 0.4
2017-Jan-15 05:34N 35°29' E 139°43'4 4.2
2017-Jan-15 04:33N 35°25' E 139°43'4 3.6
2017-Jan-15 03:33N 35°24' E 139°39'0 0.0
2017-Jan-15 02:33N 35°24' E 139°39'0 0.0
2017-Jan-15 01:33N 35°24' E 139°39'0 0.0
2017-Jan-15 00:33N 35°24' E 139°39'0 0.0
2017-Jan-14 23:33N 35°24' E 139°39'0 0.0
2017-Jan-14 22:33N 35°24' E 139°39'0 0.0
2017-Jan-14 21:33N 35°24' E 139°39'0 0.0
2017-Jan-14 20:33N 35°24' E 139°39'0 0.0
2017-Jan-14 19:33N 35°24' E 139°39'0 0.0
2017-Jan-14 18:33N 35°24' E 139°39'0 0.0
2017-Jan-14 17:33N 35°24' E 139°39'0 0.0
2017-Jan-14 16:33N 35°24' E 139°39'0 0.0
2017-Jan-14 15:33N 35°24' E 139°39'0 0.0
2017-Jan-14 14:33N 35°24' E 139°39'0 0.0
2017-Jan-14 13:33N 35°24' E 139°39'2 1.5
2017-Jan-14 12:33N 35°23' E 139°40'8 8.1
2017-Jan-14 11:33N 35°30' E 139°45'2 2.0
2017-Jan-14 10:33N 35°30' E 139°43'0 0.0
2017-Jan-14 09:32N 35°30' E 139°43'0 0.0
2017-Jan-14 08:32N 35°30' E 139°43'0 0.0
2017-Jan-14 07:32N 35°30' E 139°43'0 0.0
2017-Jan-14 06:32N 35°30' E 139°43'0 0.0
2017-Jan-14 05:32N 35°30' E 139°43'3 3.0
2017-Jan-14 04:34N 35°27' E 139°43'5 4.5
2017-Jan-14 03:33N 35°24' E 139°39'0 0.0
2017-Jan-13 23:33N 35°24' E 139°39'0 0.0
2017-Jan-13 22:30N 35°24' E 139°39'0 0.0
2017-Jan-13 21:33N 35°24' E 139°39'0 0.0
2017-Jan-13 20:30N 35°24' E 139°39'0 0.0
2017-Jan-13 19:33N 35°24' E 139°39'0 0.0
2017-Jan-13 18:33N 35°24' E 139°39'0 0.0
2017-Jan-13 17:33N 35°24' E 139°39'0 0.0
2017-Jan-13 16:33N 35°24' E 139°39'0 0.0
2017-Jan-13 15:30N 35°24' E 139°39'0 0.1
2017-Jan-13 14:33N 35°24' E 139°38'5 5.1
2017-Jan-13 13:33N 35°26' E 139°44'4 3.9
2017-Jan-13 12:34N 35°30' E 139°43'0 0.3
2017-Jan-13 11:33N 35°30' E 139°43'0 0.0
2017-Jan-13 10:33N 35°30' E 139°43'0 0.0
2017-Jan-13 09:33N 35°30' E 139°43'0 0.0
2017-Jan-13 08:33N 35°30' E 139°43'0 0.0
2017-Jan-13 07:33N 35°30' E 139°43'0 0.0
2017-Jan-13 06:33N 35°30' E 139°43'0 0.2
2017-Jan-13 05:34N 35°30' E 139°43'7 6.8
2017-Jan-13 04:34N 35°24' E 139°39'0 0.1
2017-Jan-13 03:32N 35°24' E 139°39'0 0.0
2017-Jan-13 02:32N 35°24' E 139°39'0 0.0
2017-Jan-13 01:29N 35°24' E 139°39'0 0.0
2017-Jan-13 00:29N 35°24' E 139°39'0 0.0
2017-Jan-12 23:32N 35°24' E 139°39'0 0.0
2017-Jan-12 22:32N 35°24' E 139°39'0 0.0
2017-Jan-12 21:32N 35°24' E 139°39'0 0.0
2017-Jan-12 20:32N 35°24' E 139°39'0 0.0
2017-Jan-12 19:32N 35°24' E 139°39'0 0.0
2017-Jan-12 18:32N 35°24' E 139°39'0 0.0
2017-Jan-12 17:32N 35°24' E 139°39'0 0.0
2017-Jan-12 16:32N 35°24' E 139°39'0 0.0
2017-Jan-12 15:32N 35°24' E 139°39'2 1.9
2017-Jan-12 14:33N 35°23' E 139°41'8 7.9
2017-Jan-12 13:33N 35°30' E 139°45'2 2.0
2017-Jan-12 12:33N 35°30' E 139°43'0 0.0
2017-Jan-12 11:33N 35°30' E 139°43'0 0.0
2017-Jan-12 10:33N 35°30' E 139°43'0 0.0
2017-Jan-12 09:33N 35°30' E 139°43'0 0.0
2017-Jan-12 08:33N 35°30' E 139°43'0 0.0
2017-Jan-12 07:33N 35°30' E 139°43'0 0.0
2017-Jan-12 06:33N 35°30' E 139°43'5 4.8
2017-Jan-12 05:33N 35°25' E 139°43'4 3.5
2017-Jan-12 04:33N 35°24' E 139°39'0 0.0
2017-Jan-12 03:33N 35°24' E 139°39'0 0.0
2017-Jan-12 02:33N 35°24' E 139°39'  

Dump ship's entire track history